sensor_id;sensor_type;location;lat;lon;timestamp;temperature;humidity
5055;DHT22;13829;48.990;8.346;2022-09-12T00:01:26;14.20;99.90
5055;DHT22;13829;48.990;8.346;2022-09-12T00:03:55;14.20;99.90
5055;DHT22;13829;48.990;8.346;2022-09-12T00:06:26;14.30;99.90
5055;DHT22;13829;48.990;8.346;2022-09-12T00:08:57;14.30;99.90
5055;DHT22;13829;48.990;8.346;2022-09-12T00:11:28;14.30;99.90
5055;DHT22;13829;48.990;8.346;2022-09-12T00:13:56;14.30;99.90
5055;DHT22;13829;48.990;8.346;2022-09-12T00:16:25;14.30;99.90
5055;DHT22;13829;48.990;8.346;2022-09-12T00:18:54;14.30;99.90
5055;DHT22;13829;48.990;8.346;2022-09-12T00:21:22;14.30;99.90
5055;DHT22;13829;48.990;8.346;2022-09-12T00:23:49;14.30;99.90
5055;DHT22;13829;48.990;8.346;2022-09-12T00:26:18;14.30;99.90
5055;DHT22;13829;48.990;8.346;2022-09-12T00:28:47;14.30;99.90
5055;DHT22;13829;48.990;8.346;2022-09-12T00:31:17;14.30;99.90
5055;DHT22;13829;48.990;8.346;2022-09-12T00:33:45;14.30;99.90
5055;DHT22;13829;48.990;8.346;2022-09-12T00:36:15;14.30;99.90
5055;DHT22;13829;48.990;8.346;2022-09-12T00:38:44;14.30;99.90
5055;DHT22;13829;48.990;8.346;2022-09-12T00:41:16;14.30;99.90
5055;DHT22;13829;48.990;8.346;2022-09-12T00:43:52;14.20;99.90
5055;DHT22;13829;48.990;8.346;2022-09-12T00:46:31;14.20;99.90
5055;DHT22;13829;48.990;8.346;2022-09-12T00:49:06;14.20;99.90
5055;DHT22;13829;48.990;8.346;2022-09-12T00:51:39;14.10;99.90
5055;DHT22;13829;48.990;8.346;2022-09-12T00:54:14;14.10;99.90
5055;DHT22;13829;48.990;8.346;2022-09-12T00:56:46;14.00;99.90
5055;DHT22;13829;48.990;8.346;2022-09-12T00:59:21;14.00;99.90
5055;DHT22;13829;48.990;8.346;2022-09-12T01:01:53;14.00;99.90
5055;DHT22;13829;48.990;8.346;2022-09-12T01:04:22;13.90;99.90
5055;DHT22;13829;48.990;8.346;2022-09-12T01:06:54;13.90;99.90
5055;DHT22;13829;48.990;8.346;2022-09-12T01:09:23;13.80;99.90
5055;DHT22;13829;48.990;8.346;2022-09-12T01:11:51;13.80;99.90
5055;DHT22;13829;48.990;8.346;2022-09-12T01:14:20;13.80;99.90
5055;DHT22;13829;48.990;8.346;2022-09-12T01:16:49;13.80;99.90
5055;DHT22;13829;48.990;8.346;2022-09-12T01:26:51;13.70;99.90
5055;DHT22;13829;48.990;8.346;2022-09-12T01:33:05;13.60;99.90
5055;DHT22;13829;48.990;8.346;2022-09-12T01:35:44;13.60;99.90
5055;DHT22;13829;48.990;8.346;2022-09-12T01:38:24;13.60;99.90
5055;DHT22;13829;48.990;8.346;2022-09-12T01:41:09;13.50;99.90
5055;DHT22;13829;48.990;8.346;2022-09-12T01:43:46;13.50;99.90
5055;DHT22;13829;48.990;8.346;2022-09-12T01:46:20;13.50;99.90
5055;DHT22;13829;48.990;8.346;2022-09-12T01:48:58;13.50;99.90
5055;DHT22;13829;48.990;8.346;2022-09-12T01:51:31;13.40;99.90
5055;DHT22;13829;48.990;8.346;2022-09-12T01:54:07;13.40;99.90
5055;DHT22;13829;48.990;8.346;2022-09-12T01:56:39;13.40;99.90
5055;DHT22;13829;48.990;8.346;2022-09-12T01:59:12;13.40;99.90
5055;DHT22;13829;48.990;8.346;2022-09-12T02:01:47;13.40;99.90
5055;DHT22;13829;48.990;8.346;2022-09-12T02:04:22;13.40;99.90
5055;DHT22;13829;48.990;8.346;2022-09-12T02:06:55;13.40;99.90
5055;DHT22;13829;48.990;8.346;2022-09-12T02:09:30;13.40;99.90
5055;DHT22;13829;48.990;8.346;2022-09-12T02:12:03;13.30;99.90
5055;DHT22;13829;48.990;8.346;2022-09-12T02:14:37;13.30;99.90
5055;DHT22;13829;48.990;8.346;2022-09-12T02:17:11;13.20;99.90
5055;DHT22;13829;48.990;8.346;2022-09-12T02:19:42;13.20;99.90
5055;DHT22;13829;48.990;8.346;2022-09-12T02:22:14;13.20;99.90
5055;DHT22;13829;48.990;8.346;2022-09-12T02:24:48;13.20;99.90
5055;DHT22;13829;48.990;8.346;2022-09-12T02:27:21;13.20;99.90
5055;DHT22;13829;48.990;8.346;2022-09-12T02:29:52;13.10;99.90
5055;DHT22;13829;48.990;8.346;2022-09-12T02:32:27;13.10;99.90
5055;DHT22;13829;48.990;8.346;2022-09-12T02:35:03;13.20;99.90
5055;DHT22;13829;48.990;8.346;2022-09-12T02:37:45;13.20;99.90
5055;DHT22;13829;48.990;8.346;2022-09-12T02:40:21;13.10;99.90
5055;DHT22;13829;48.990;8.346;2022-09-12T02:42:48;13.10;99.90
5055;DHT22;13829;48.990;8.346;2022-09-12T02:45:16;13.10;99.90
5055;DHT22;13829;48.990;8.346;2022-09-12T02:47:48;13.10;99.90
5055;DHT22;13829;48.990;8.346;2022-09-12T02:50:19;13.10;99.90
5055;DHT22;13829;48.990;8.346;2022-09-12T02:52:46;13.10;99.90
5055;DHT22;13829;48.990;8.346;2022-09-12T02:55:13;13.10;99.90
5055;DHT22;13829;48.990;8.346;2022-09-12T02:57:42;13.10;99.90
5055;DHT22;13829;48.990;8.346;2022-09-12T03:00:10;13.00;99.90
5055;DHT22;13829;48.990;8.346;2022-09-12T03:02:53;13.00;99.90
5055;DHT22;13829;48.990;8.346;2022-09-12T03:05:33;13.00;99.90
5055;DHT22;13829;48.990;8.346;2022-09-12T03:08:20;13.00;99.90
5055;DHT22;13829;48.990;8.346;2022-09-12T03:11:31;13.00;99.90
5055;DHT22;13829;48.990;8.346;2022-09-12T03:14:17;12.90;99.90
5055;DHT22;13829;48.990;8.346;2022-09-12T03:17:00;12.90;99.90
5055;DHT22;13829;48.990;8.346;2022-09-12T03:19:42;12.90;99.90
5055;DHT22;13829;48.990;8.346;2022-09-12T03:22:22;12.90;99.90
5055;DHT22;13829;48.990;8.346;2022-09-12T03:25:02;12.90;99.90
5055;DHT22;13829;48.990;8.346;2022-09-12T03:27:41;12.80;99.90
5055;DHT22;13829;48.990;8.346;2022-09-12T03:30:10;12.80;99.90
5055;DHT22;13829;48.990;8.346;2022-09-12T03:32:43;12.80;99.90
5055;DHT22;13829;48.990;8.346;2022-09-12T03:35:14;12.70;99.90
5055;DHT22;13829;48.990;8.346;2022-09-12T03:37:44;12.70;99.90
5055;DHT22;13829;48.990;8.346;2022-09-12T03:40:12;12.60;99.90
5055;DHT22;13829;48.990;8.346;2022-09-12T03:42:40;12.60;99.90
5055;DHT22;13829;48.990;8.346;2022-09-12T03:45:08;12.60;99.90
5055;DHT22;13829;48.990;8.346;2022-09-12T03:47:36;12.60;99.90
5055;DHT22;13829;48.990;8.346;2022-09-12T03:50:04;12.60;99.90
5055;DHT22;13829;48.990;8.346;2022-09-12T03:52:33;12.60;99.90
5055;DHT22;13829;48.990;8.346;2022-09-12T03:55:00;12.60;99.90
5055;DHT22;13829;48.990;8.346;2022-09-12T03:57:27;12.50;99.90
5055;DHT22;13829;48.990;8.346;2022-09-12T03:59:54;12.50;99.90
5055;DHT22;13829;48.990;8.346;2022-09-12T04:02:21;12.50;99.90
5055;DHT22;13829;48.990;8.346;2022-09-12T04:04:48;12.50;99.90
5055;DHT22;13829;48.990;8.346;2022-09-12T04:07:16;12.50;99.90
5055;DHT22;13829;48.990;8.346;2022-09-12T04:09:44;12.60;99.90
5055;DHT22;13829;48.990;8.346;2022-09-12T04:12:11;12.50;99.90
5055;DHT22;13829;48.990;8.346;2022-09-12T04:14:38;12.60;99.90
5055;DHT22;13829;48.990;8.346;2022-09-12T04:17:05;12.50;99.90
5055;DHT22;13829;48.990;8.346;2022-09-12T04:19:32;12.50;99.90
5055;DHT22;13829;48.990;8.346;2022-09-12T04:21:59;12.50;99.90
5055;DHT22;13829;48.990;8.346;2022-09-12T04:24:26;12.50;99.90
5055;DHT22;13829;48.990;8.346;2022-09-12T04:26:55;12.50;99.90
5055;DHT22;13829;48.990;8.346;2022-09-12T04:29:21;12.40;99.90
5055;DHT22;13829;48.990;8.346;2022-09-12T04:31:49;12.40;99.90
5055;DHT22;13829;48.990;8.346;2022-09-12T04:34:16;12.30;99.90
5055;DHT22;13829;48.990;8.346;2022-09-12T04:36:44;12.30;99.90
5055;DHT22;13829;48.990;8.346;2022-09-12T04:39:10;12.30;99.90
5055;DHT22;13829;48.990;8.346;2022-09-12T04:41:39;12.30;99.90
5055;DHT22;13829;48.990;8.346;2022-09-12T04:44:11;12.30;99.90
5055;DHT22;13829;48.990;8.346;2022-09-12T04:46:41;12.20;99.90
5055;DHT22;13829;48.990;8.346;2022-09-12T04:49:10;12.20;99.90
5055;DHT22;13829;48.990;8.346;2022-09-12T04:51:39;12.20;99.90
5055;DHT22;13829;48.990;8.346;2022-09-12T04:54:10;12.20;99.90
5055;DHT22;13829;48.990;8.346;2022-09-12T04:56:40;12.20;99.90
5055;DHT22;13829;48.990;8.346;2022-09-12T04:59:11;12.10;99.90
5055;DHT22;13829;48.990;8.346;2022-09-12T05:01:40;12.10;99.90
5055;DHT22;13829;48.990;8.346;2022-09-12T05:04:08;12.10;99.90
5055;DHT22;13829;48.990;8.346;2022-09-12T05:06:38;12.20;99.90
5055;DHT22;13829;48.990;8.346;2022-09-12T05:09:07;12.20;99.90
5055;DHT22;13829;48.990;8.346;2022-09-12T05:11:40;12.30;99.90
5055;DHT22;13829;48.990;8.346;2022-09-12T05:14:10;12.30;99.90
5055;DHT22;13829;48.990;8.346;2022-09-12T05:16:38;12.20;99.90
5055;DHT22;13829;48.990;8.346;2022-09-12T05:19:06;12.20;99.90
5055;DHT22;13829;48.990;8.346;2022-09-12T05:21:35;12.20;99.90
5055;DHT22;13829;48.990;8.346;2022-09-12T05:24:03;12.30;99.90
5055;DHT22;13829;48.990;8.346;2022-09-12T05:26:30;12.30;99.90
5055;DHT22;13829;48.990;8.346;2022-09-12T05:28:57;12.30;99.90
5055;DHT22;13829;48.990;8.346;2022-09-12T05:31:26;12.30;99.90
5055;DHT22;13829;48.990;8.346;2022-09-12T05:33:54;12.40;99.90
5055;DHT22;13829;48.990;8.346;2022-09-12T05:36:24;12.40;99.90
5055;DHT22;13829;48.990;8.346;2022-09-12T05:38:52;12.40;99.90
5055;DHT22;13829;48.990;8.346;2022-09-12T05:41:21;12.50;99.90
5055;DHT22;13829;48.990;8.346;2022-09-12T05:43:51;12.60;99.90
5055;DHT22;13829;48.990;8.346;2022-09-12T05:46:21;12.60;99.90
5055;DHT22;13829;48.990;8.346;2022-09-12T05:48:51;12.60;99.90
5055;DHT22;13829;48.990;8.346;2022-09-12T05:51:21;12.70;99.90
5055;DHT22;13829;48.990;8.346;2022-09-12T05:53:51;12.80;99.90
5055;DHT22;13829;48.990;8.346;2022-09-12T05:56:22;12.90;99.90
5055;DHT22;13829;48.990;8.346;2022-09-12T05:58:53;12.90;99.90
5055;DHT22;13829;48.990;8.346;2022-09-12T06:01:22;13.00;99.90
5055;DHT22;13829;48.990;8.346;2022-09-12T06:03:51;13.10;99.90
5055;DHT22;13829;48.990;8.346;2022-09-12T06:06:20;13.10;99.90
5055;DHT22;13829;48.990;8.346;2022-09-12T06:08:51;13.10;99.90
5055;DHT22;13829;48.990;8.346;2022-09-12T06:11:24;13.20;99.90
5055;DHT22;13829;48.990;8.346;2022-09-12T06:13:53;13.30;99.90
5055;DHT22;13829;48.990;8.346;2022-09-12T06:16:22;13.40;99.90
5055;DHT22;13829;48.990;8.346;2022-09-12T06:18:54;13.40;99.90
5055;DHT22;13829;48.990;8.346;2022-09-12T06:21:23;13.50;99.90
5055;DHT22;13829;48.990;8.346;2022-09-12T06:23:52;13.60;99.90
5055;DHT22;13829;48.990;8.346;2022-09-12T06:26:20;13.70;99.90
5055;DHT22;13829;48.990;8.346;2022-09-12T06:28:48;13.90;99.90
5055;DHT22;13829;48.990;8.346;2022-09-12T06:31:17;14.10;99.90
5055;DHT22;13829;48.990;8.346;2022-09-12T06:33:47;14.20;99.90
5055;DHT22;13829;48.990;8.346;2022-09-12T06:36:19;14.40;99.90
5055;DHT22;13829;48.990;8.346;2022-09-12T06:38:52;14.50;99.90
5055;DHT22;13829;48.990;8.346;2022-09-12T06:41:20;14.70;99.90
5055;DHT22;13829;48.990;8.346;2022-09-12T06:43:48;14.80;99.90
5055;DHT22;13829;48.990;8.346;2022-09-12T06:46:16;15.40;99.90
5055;DHT22;13829;48.990;8.346;2022-09-12T06:48:43;16.90;99.90
5055;DHT22;13829;48.990;8.346;2022-09-12T06:51:12;18.80;99.90
5055;DHT22;13829;48.990;8.346;2022-09-12T06:53:42;20.60;99.90
5055;DHT22;13829;48.990;8.346;2022-09-12T06:56:12;22.20;99.90
5055;DHT22;13829;48.990;8.346;2022-09-12T06:58:41;23.70;99.80
5055;DHT22;13829;48.990;8.346;2022-09-12T07:01:10;24.70;95.70
5055;DHT22;13829;48.990;8.346;2022-09-12T07:03:39;25.10;94.90
5055;DHT22;13829;48.990;8.346;2022-09-12T07:06:08;25.60;94.50
5055;DHT22;13829;48.990;8.346;2022-09-12T07:08:37;26.30;92.40
5055;DHT22;13829;48.990;8.346;2022-09-12T07:11:11;26.50;91.40
5055;DHT22;13829;48.990;8.346;2022-09-12T07:13:40;27.00;91.10
5055;DHT22;13829;48.990;8.346;2022-09-12T07:16:08;27.20;89.60
5055;DHT22;13829;48.990;8.346;2022-09-12T07:18:37;27.40;86.20
5055;DHT22;13829;48.990;8.346;2022-09-12T07:21:07;27.50;89.10
5055;DHT22;13829;48.990;8.346;2022-09-12T07:23:36;27.50;86.90
5055;DHT22;13829;48.990;8.346;2022-09-12T07:26:05;27.70;84.40
5055;DHT22;13829;48.990;8.346;2022-09-12T07:28:33;27.70;85.00
5055;DHT22;13829;48.990;8.346;2022-09-12T07:31:05;27.40;83.20
5055;DHT22;13829;48.990;8.346;2022-09-12T07:33:33;27.20;84.50
5055;DHT22;13829;48.990;8.346;2022-09-12T07:36:02;27.50;82.00
5055;DHT22;13829;48.990;8.346;2022-09-12T07:38:29;27.60;83.00
5055;DHT22;13829;48.990;8.346;2022-09-12T07:40:56;27.50;83.70
5055;DHT22;13829;48.990;8.346;2022-09-12T07:43:24;27.50;82.10
5055;DHT22;13829;48.990;8.346;2022-09-12T07:45:55;27.30;84.80
5055;DHT22;13829;48.990;8.346;2022-09-12T07:48:23;27.80;79.60
5055;DHT22;13829;48.990;8.346;2022-09-12T07:50:57;27.30;82.90
5055;DHT22;13829;48.990;8.346;2022-09-12T07:53:25;27.40;81.70
5055;DHT22;13829;48.990;8.346;2022-09-12T07:55:53;27.50;83.10
5055;DHT22;13829;48.990;8.346;2022-09-12T07:58:20;28.30;81.30
5055;DHT22;13829;48.990;8.346;2022-09-12T08:00:47;28.50;80.20
5055;DHT22;13829;48.990;8.346;2022-09-12T08:03:16;28.10;80.10
5055;DHT22;13829;48.990;8.346;2022-09-12T08:05:43;27.80;80.50
5055;DHT22;13829;48.990;8.346;2022-09-12T08:08:10;27.50;82.90
5055;DHT22;13829;48.990;8.346;2022-09-12T08:10:37;27.60;80.90
5055;DHT22;13829;48.990;8.346;2022-09-12T08:13:04;27.70;80.90
5055;DHT22;13829;48.990;8.346;2022-09-12T08:15:33;28.00;80.70
5055;DHT22;13829;48.990;8.346;2022-09-12T08:18:00;27.70;80.90
5055;DHT22;13829;48.990;8.346;2022-09-12T08:20:29;27.50;80.10
5055;DHT22;13829;48.990;8.346;2022-09-12T08:22:56;27.40;79.40
5055;DHT22;13829;48.990;8.346;2022-09-12T08:25:23;26.80;81.30
5055;DHT22;13829;48.990;8.346;2022-09-12T08:27:50;26.70;85.90
5055;DHT22;13829;48.990;8.346;2022-09-12T08:30:17;26.60;82.60
5055;DHT22;13829;48.990;8.346;2022-09-12T08:32:44;26.10;84.40
5055;DHT22;13829;48.990;8.346;2022-09-12T08:35:11;25.40;85.70
5055;DHT22;13829;48.990;8.346;2022-09-12T08:37:41;25.00;85.80
5055;DHT22;13829;48.990;8.346;2022-09-12T08:40:13;24.50;87.90
5055;DHT22;13829;48.990;8.346;2022-09-12T08:42:53;24.40;91.10
5055;DHT22;13829;48.990;8.346;2022-09-12T08:45:31;24.40;91.40
5055;DHT22;13829;48.990;8.346;2022-09-12T08:48:03;24.30;91.80
5055;DHT22;13829;48.990;8.346;2022-09-12T08:50:35;24.40;91.80
5055;DHT22;13829;48.990;8.346;2022-09-12T08:53:11;24.30;90.50
5055;DHT22;13829;48.990;8.346;2022-09-12T08:55:43;23.90;91.30
5055;DHT22;13829;48.990;8.346;2022-09-12T08:58:16;23.80;92.70
5055;DHT22;13829;48.990;8.346;2022-09-12T09:00:51;23.80;92.90
5055;DHT22;13829;48.990;8.346;2022-09-12T09:03:45;23.80;93.30
5055;DHT22;13829;48.990;8.346;2022-09-12T09:09:45;23.40;93.20
5055;DHT22;13829;48.990;8.346;2022-09-12T09:12:25;22.90;94.40
5055;DHT22;13829;48.990;8.346;2022-09-12T09:15:13;22.90;94.60
5055;DHT22;13829;48.990;8.346;2022-09-12T09:17:54;22.70;95.60
5055;DHT22;13829;48.990;8.346;2022-09-12T09:20:31;22.60;96.60
5055;DHT22;13829;48.990;8.346;2022-09-12T09:23:06;22.60;96.40
5055;DHT22;13829;48.990;8.346;2022-09-12T09:25:46;22.30;96.10
5055;DHT22;13829;48.990;8.346;2022-09-12T09:28:21;22.30;96.40
5055;DHT22;13829;48.990;8.346;2022-09-12T09:30:51;22.10;96.90
5055;DHT22;13829;48.990;8.346;2022-09-12T09:33:21;22.20;97.60
5055;DHT22;13829;48.990;8.346;2022-09-12T09:35:55;22.20;96.80
5055;DHT22;13829;48.990;8.346;2022-09-12T09:38:37;22.20;96.20
5055;DHT22;13829;48.990;8.346;2022-09-12T09:41:21;22.00;97.20
5055;DHT22;13829;48.990;8.346;2022-09-12T09:43:57;22.00;97.50
5055;DHT22;13829;48.990;8.346;2022-09-12T09:46:27;22.00;96.90
5055;DHT22;13829;48.990;8.346;2022-09-12T09:48:55;21.90;96.90
5055;DHT22;13829;48.990;8.346;2022-09-12T09:51:32;21.90;97.00
5055;DHT22;13829;48.990;8.346;2022-09-12T09:54:04;22.00;97.10
5055;DHT22;13829;48.990;8.346;2022-09-12T09:56:44;22.00;97.50
5055;DHT22;13829;48.990;8.346;2022-09-12T09:59:13;22.00;97.60
5055;DHT22;13829;48.990;8.346;2022-09-12T10:01:46;22.10;97.10
5055;DHT22;13829;48.990;8.346;2022-09-12T10:04:20;22.10;97.80
5055;DHT22;13829;48.990;8.346;2022-09-12T10:06:51;22.10;97.90
5055;DHT22;13829;48.990;8.346;2022-09-12T10:09:23;22.10;97.40
5055;DHT22;13829;48.990;8.346;2022-09-12T10:11:54;22.00;97.80
5055;DHT22;13829;48.990;8.346;2022-09-12T10:14:35;22.00;98.20
5055;DHT22;13829;48.990;8.346;2022-09-12T10:17:22;22.20;98.30
5055;DHT22;13829;48.990;8.346;2022-09-12T10:19:53;21.90;98.40
5055;DHT22;13829;48.990;8.346;2022-09-12T10:22:22;21.90;98.40
5055;DHT22;13829;48.990;8.346;2022-09-12T10:24:53;21.70;98.60
5055;DHT22;13829;48.990;8.346;2022-09-12T10:27:27;21.70;98.90
5055;DHT22;13829;48.990;8.346;2022-09-12T10:30:00;21.70;99.40
5055;DHT22;13829;48.990;8.346;2022-09-12T10:32:35;21.70;99.50
5055;DHT22;13829;48.990;8.346;2022-09-12T10:35:06;21.60;99.30
5055;DHT22;13829;48.990;8.346;2022-09-12T10:37:52;21.70;99.60
5055;DHT22;13829;48.990;8.346;2022-09-12T10:40:23;21.70;99.90
5055;DHT22;13829;48.990;8.346;2022-09-12T10:42:55;21.80;99.30
5055;DHT22;13829;48.990;8.346;2022-09-12T10:45:26;21.90;99.90
5055;DHT22;13829;48.990;8.346;2022-09-12T10:47:57;22.00;99.50
5055;DHT22;13829;48.990;8.346;2022-09-12T10:50:30;22.10;99.40
5055;DHT22;13829;48.990;8.346;2022-09-12T10:53:18;22.10;98.10
5055;DHT22;13829;48.990;8.346;2022-09-12T10:56:06;22.10;99.10
5055;DHT22;13829;48.990;8.346;2022-09-12T10:58:58;22.10;99.70
5055;DHT22;13829;48.990;8.346;2022-09-12T11:01:39;22.10;99.30
5055;DHT22;13829;48.990;8.346;2022-09-12T11:04:39;22.10;99.90
5055;DHT22;13829;48.990;8.346;2022-09-12T11:07:31;22.10;99.70
5055;DHT22;13829;48.990;8.346;2022-09-12T11:10:23;22.20;99.60
5055;DHT22;13829;48.990;8.346;2022-09-12T11:13:09;22.20;99.20
5055;DHT22;13829;48.990;8.346;2022-09-12T11:15:54;22.20;98.70
5055;DHT22;13829;48.990;8.346;2022-09-12T11:18:47;22.30;99.00
5055;DHT22;13829;48.990;8.346;2022-09-12T11:21:38;22.30;99.30
5055;DHT22;13829;48.990;8.346;2022-09-12T11:24:22;22.30;99.20
5055;DHT22;13829;48.990;8.346;2022-09-12T11:27:09;22.20;99.70
5055;DHT22;13829;48.990;8.346;2022-09-12T11:29:53;22.20;99.60
5055;DHT22;13829;48.990;8.346;2022-09-12T11:32:56;22.00;98.90
5055;DHT22;13829;48.990;8.346;2022-09-12T11:35:32;22.10;98.50
5055;DHT22;13829;48.990;8.346;2022-09-12T11:38:19;22.00;98.60
5055;DHT22;13829;48.990;8.346;2022-09-12T11:40:58;22.00;99.40
5055;DHT22;13829;48.990;8.346;2022-09-12T11:43:36;22.00;99.60
5055;DHT22;13829;48.990;8.346;2022-09-12T11:46:13;22.00;99.90
5055;DHT22;13829;48.990;8.346;2022-09-12T11:48:50;22.00;99.70
5055;DHT22;13829;48.990;8.346;2022-09-12T11:51:25;22.00;99.90
5055;DHT22;13829;48.990;8.346;2022-09-12T11:54:02;22.00;99.90
5055;DHT22;13829;48.990;8.346;2022-09-12T11:56:37;21.90;99.90
5055;DHT22;13829;48.990;8.346;2022-09-12T11:59:16;22.00;99.70
5055;DHT22;13829;48.990;8.346;2022-09-12T12:01:56;22.10;99.00
5055;DHT22;13829;48.990;8.346;2022-09-12T12:04:31;22.20;98.70
5055;DHT22;13829;48.990;8.346;2022-09-12T12:07:05;22.30;98.70
5055;DHT22;13829;48.990;8.346;2022-09-12T12:09:35;22.40;98.80
5055;DHT22;13829;48.990;8.346;2022-09-12T12:12:14;22.50;98.90
5055;DHT22;13829;48.990;8.346;2022-09-12T12:14:49;22.50;98.20
5055;DHT22;13829;48.990;8.346;2022-09-12T12:17:20;22.70;98.70
5055;DHT22;13829;48.990;8.346;2022-09-12T12:19:58;22.70;97.70
5055;DHT22;13829;48.990;8.346;2022-09-12T12:22:28;22.70;99.60
5055;DHT22;13829;48.990;8.346;2022-09-12T12:25:05;22.70;99.30
5055;DHT22;13829;48.990;8.346;2022-09-12T12:27:52;22.60;98.60
5055;DHT22;13829;48.990;8.346;2022-09-12T12:33:57;22.70;98.50
5055;DHT22;13829;48.990;8.346;2022-09-12T12:36:42;22.70;96.20
5055;DHT22;13829;48.990;8.346;2022-09-12T12:46:11;22.80;96.20
5055;DHT22;13829;48.990;8.346;2022-09-12T12:48:53;22.70;96.00
5055;DHT22;13829;48.990;8.346;2022-09-12T12:51:58;22.70;97.40
5055;DHT22;13829;48.990;8.346;2022-09-12T12:54:33;22.80;96.80
5055;DHT22;13829;48.990;8.346;2022-09-12T12:57:26;22.90;96.60
5055;DHT22;13829;48.990;8.346;2022-09-12T12:59:59;22.90;97.00
5055;DHT22;13829;48.990;8.346;2022-09-12T13:02:30;23.00;97.40
5055;DHT22;13829;48.990;8.346;2022-09-12T13:05:05;23.00;96.90
5055;DHT22;13829;48.990;8.346;2022-09-12T13:07:45;23.00;96.80
5055;DHT22;13829;48.990;8.346;2022-09-12T13:10:20;23.00;96.80
5055;DHT22;13829;48.990;8.346;2022-09-12T13:12:49;23.00;96.70
5055;DHT22;13829;48.990;8.346;2022-09-12T13:15:46;23.10;95.10
5055;DHT22;13829;48.990;8.346;2022-09-12T13:18:22;23.20;95.90
5055;DHT22;13829;48.990;8.346;2022-09-12T13:20:58;23.30;95.70
5055;DHT22;13829;48.990;8.346;2022-09-12T13:23:34;23.40;97.10
5055;DHT22;13829;48.990;8.346;2022-09-12T13:26:02;23.40;96.20
5055;DHT22;13829;48.990;8.346;2022-09-12T13:28:35;23.40;95.60
5055;DHT22;13829;48.990;8.346;2022-09-12T13:31:20;23.40;96.20
5055;DHT22;13829;48.990;8.346;2022-09-12T13:33:52;23.40;93.90
5055;DHT22;13829;48.990;8.346;2022-09-12T13:36:53;23.50;93.60
5055;DHT22;13829;48.990;8.346;2022-09-12T13:39:43;23.40;93.20
5055;DHT22;13829;48.990;8.346;2022-09-12T13:42:37;23.40;93.90
5055;DHT22;13829;48.990;8.346;2022-09-12T13:45:10;23.50;92.30
5055;DHT22;13829;48.990;8.346;2022-09-12T13:47:42;23.60;93.90
5055;DHT22;13829;48.990;8.346;2022-09-12T13:50:16;23.60;94.30
5055;DHT22;13829;48.990;8.346;2022-09-12T13:52:49;23.50;94.20
5055;DHT22;13829;48.990;8.346;2022-09-12T13:55:27;23.60;95.50
5055;DHT22;13829;48.990;8.346;2022-09-12T13:57:59;23.80;95.40
5055;DHT22;13829;48.990;8.346;2022-09-12T14:00:28;23.70;95.10
5055;DHT22;13829;48.990;8.346;2022-09-12T14:02:58;23.70;95.10
5055;DHT22;13829;48.990;8.346;2022-09-12T14:05:54;23.60;95.70
5055;DHT22;13829;48.990;8.346;2022-09-12T14:08:23;23.80;94.90
5055;DHT22;13829;48.990;8.346;2022-09-12T14:10:51;23.80;93.00
5055;DHT22;13829;48.990;8.346;2022-09-12T14:13:21;23.90;93.50
5055;DHT22;13829;48.990;8.346;2022-09-12T14:15:52;23.90;92.90
5055;DHT22;13829;48.990;8.346;2022-09-12T14:18:23;23.90;93.90
5055;DHT22;13829;48.990;8.346;2022-09-12T14:20:53;24.00;91.90
5055;DHT22;13829;48.990;8.346;2022-09-12T14:23:26;24.00;93.60
5055;DHT22;13829;48.990;8.346;2022-09-12T14:25:58;24.10;92.10
5055;DHT22;13829;48.990;8.346;2022-09-12T14:28:28;24.10;92.80
5055;DHT22;13829;48.990;8.346;2022-09-12T14:31:01;24.10;92.40
5055;DHT22;13829;48.990;8.346;2022-09-12T14:33:32;24.10;92.90
5055;DHT22;13829;48.990;8.346;2022-09-12T14:36:18;24.00;92.80
5055;DHT22;13829;48.990;8.346;2022-09-12T14:38:49;24.10;91.70
5055;DHT22;13829;48.990;8.346;2022-09-12T14:41:26;24.10;90.80
5055;DHT22;13829;48.990;8.346;2022-09-12T14:43:57;24.10;92.80
5055;DHT22;13829;48.990;8.346;2022-09-12T14:46:30;24.10;92.30
5055;DHT22;13829;48.990;8.346;2022-09-12T14:49:05;24.20;91.90
5055;DHT22;13829;48.990;8.346;2022-09-12T14:51:37;24.30;92.90
5055;DHT22;13829;48.990;8.346;2022-09-12T14:54:36;24.20;92.20
5055;DHT22;13829;48.990;8.346;2022-09-12T14:57:30;24.30;91.20
5055;DHT22;13829;48.990;8.346;2022-09-12T15:00:21;24.30;92.50
5055;DHT22;13829;48.990;8.346;2022-09-12T15:02:49;24.20;92.90
5055;DHT22;13829;48.990;8.346;2022-09-12T15:05:22;24.10;92.90
5055;DHT22;13829;48.990;8.346;2022-09-12T15:07:54;24.10;92.80
5055;DHT22;13829;48.990;8.346;2022-09-12T15:10:26;24.00;90.70
5055;DHT22;13829;48.990;8.346;2022-09-12T15:13:14;24.20;90.60
5055;DHT22;13829;48.990;8.346;2022-09-12T15:15:46;24.10;92.60
5055;DHT22;13829;48.990;8.346;2022-09-12T15:18:14;24.10;91.80
5055;DHT22;13829;48.990;8.346;2022-09-12T15:20:44;24.10;91.70
5055;DHT22;13829;48.990;8.346;2022-09-12T15:23:17;23.90;91.90
5055;DHT22;13829;48.990;8.346;2022-09-12T15:25:46;23.90;91.60
5055;DHT22;13829;48.990;8.346;2022-09-12T15:28:18;24.00;90.00
5055;DHT22;13829;48.990;8.346;2022-09-12T15:30:47;24.00;92.80
5055;DHT22;13829;48.990;8.346;2022-09-12T15:33:16;24.00;91.40
5055;DHT22;13829;48.990;8.346;2022-09-12T15:35:45;23.90;92.10
5055;DHT22;13829;48.990;8.346;2022-09-12T15:38:12;23.90;92.60
5055;DHT22;13829;48.990;8.346;2022-09-12T15:40:39;23.80;92.60
5055;DHT22;13829;48.990;8.346;2022-09-12T15:43:07;23.70;92.00
5055;DHT22;13829;48.990;8.346;2022-09-12T15:45:37;23.80;92.40
5055;DHT22;13829;48.990;8.346;2022-09-12T15:48:04;23.80;92.50
5055;DHT22;13829;48.990;8.346;2022-09-12T15:50:31;23.80;91.20
5055;DHT22;13829;48.990;8.346;2022-09-12T15:52:58;23.70;91.50
5055;DHT22;13829;48.990;8.346;2022-09-12T15:55:27;23.70;91.20
5055;DHT22;13829;48.990;8.346;2022-09-12T15:57:56;23.80;91.50
5055;DHT22;13829;48.990;8.346;2022-09-12T16:00:24;23.70;90.90
5055;DHT22;13829;48.990;8.346;2022-09-12T16:02:53;23.70;91.80
5055;DHT22;13829;48.990;8.346;2022-09-12T16:05:23;23.70;91.40
5055;DHT22;13829;48.990;8.346;2022-09-12T16:07:53;23.70;91.80
5055;DHT22;13829;48.990;8.346;2022-09-12T16:10:22;23.70;92.50
5055;DHT22;13829;48.990;8.346;2022-09-12T16:12:51;23.60;90.50
5055;DHT22;13829;48.990;8.346;2022-09-12T16:15:21;23.50;90.20
5055;DHT22;13829;48.990;8.346;2022-09-12T16:17:49;23.50;90.80
5055;DHT22;13829;48.990;8.346;2022-09-12T16:20:18;23.40;90.70
5055;DHT22;13829;48.990;8.346;2022-09-12T16:22:46;23.50;91.60
5055;DHT22;13829;48.990;8.346;2022-09-12T16:25:14;23.30;91.90
5055;DHT22;13829;48.990;8.346;2022-09-12T16:27:41;23.30;93.30
5055;DHT22;13829;48.990;8.346;2022-09-12T16:30:09;23.30;93.10
5055;DHT22;13829;48.990;8.346;2022-09-12T16:32:37;23.10;92.70
5055;DHT22;13829;48.990;8.346;2022-09-12T16:35:05;23.10;92.60
5055;DHT22;13829;48.990;8.346;2022-09-12T16:37:34;23.00;92.70
5055;DHT22;13829;48.990;8.346;2022-09-12T16:40:02;22.90;93.30
5055;DHT22;13829;48.990;8.346;2022-09-12T16:42:30;22.70;94.50
5055;DHT22;13829;48.990;8.346;2022-09-12T16:44:57;22.60;93.60
5055;DHT22;13829;48.990;8.346;2022-09-12T16:47:24;22.50;94.10